MRBN weather

Bataan (Monte Libano) Airport
Limón, Limon, Costa Rica

Public forecast

Using degrees Celsius for public forecast. Weather courtesy of forecast.io.

METAR (pilot weather report)

Closest report is Limon International Airport, 19.0 nm (35.1 km) ESE. Retrieved 2019/05/20 17:00 UTC (56 minutes ago):

MRLM 201700Z 06005KT 9999 FEW030 BKN230 29/24 A2987

TAF (pilot weather forecast)

Closest forecast is Limon International Airport, 19.0 nm (35.1 km) ESE. Retrieved 2019/05/20 12:30 UTC (5 hours ago):

TAF MRLM 201100Z 2012/2112 26006KT 9999 SCT020 TX31/2019Z TN23/2111Z FM201600 05006KT 9999 FEW030 TEMPO 2021/2024 DZ BKN015